createdAt,value
2019-04-29T00:02:36.267Z,7.07
2019-04-29T00:07:42.751Z,7.67
2019-04-29T00:12:49.377Z,7.30
2019-04-29T00:17:59.659Z,8.08
2019-04-29T00:23:05.829Z,7.73
2019-04-29T00:28:12.063Z,7.63
2019-04-29T00:33:18.396Z,7.50
2019-04-29T00:38:45.694Z,7.53
2019-04-29T00:44:12.435Z,6.53
2019-04-29T00:49:18.510Z,7.40
2019-04-29T00:54:31.179Z,6.53
2019-04-29T00:59:37.215Z,6.67
2019-04-29T01:04:43.404Z,7.30
2019-04-29T01:09:49.476Z,6.80
2019-04-29T01:14:55.663Z,6.43
2019-04-29T01:20:01.734Z,5.93
2019-04-29T01:25:09.039Z,6.60
2019-04-29T01:31:09.022Z,6.05
2019-04-29T01:36:46.309Z,5.83
2019-04-29T01:42:03.777Z,5.60
2019-04-29T01:47:09.917Z,5.77
2019-04-29T01:52:17.028Z,5.73
2019-04-29T01:57:23.240Z,5.53
2019-04-29T02:02:29.281Z,5.30
2019-04-29T02:07:35.443Z,6.03
2019-04-29T02:12:41.706Z,6.63
2019-04-29T02:17:47.924Z,5.73
2019-04-29T02:23:13.040Z,5.60
2019-04-29T02:28:19.125Z,6.37
2019-04-29T02:33:25.360Z,6.47
2019-04-29T02:38:43.273Z,7.03
2019-04-29T02:43:51.341Z,5.87
2019-04-29T02:48:57.591Z,6.20
2019-04-29T02:54:03.725Z,6.30
2019-04-29T02:59:10.114Z,6.03
2019-04-29T03:04:22.051Z,6.17
2019-04-29T03:09:28.528Z,6.40
2019-04-29T03:14:34.961Z,6.22
2019-04-29T03:20:00.326Z,6.67
2019-04-29T03:25:06.760Z,7.00
2019-04-29T03:30:13.101Z,6.27
2019-04-29T03:35:19.208Z,6.40
2019-04-29T03:40:25.424Z,6.72
2019-04-29T03:45:31.669Z,5.83
2019-04-29T03:50:37.852Z,6.60
2019-04-29T03:55:44.297Z,6.40
2019-04-29T04:00:52.984Z,5.67
2019-04-29T04:06:17.395Z,6.50
2019-04-29T04:11:23.603Z,6.62
2019-04-29T04:16:48.852Z,6.50
2019-04-29T04:21:54.981Z,6.43
2019-04-29T04:27:01.202Z,6.30
2019-04-29T04:32:07.468Z,6.45
2019-04-29T04:37:13.670Z,6.83
2019-04-29T04:42:19.894Z,6.47
2019-04-29T04:47:26.004Z,6.23
2019-04-29T04:52:32.239Z,6.57
2019-04-29T04:57:38.366Z,6.05
2019-04-29T05:02:44.510Z,6.33
2019-04-29T05:07:50.823Z,6.57
2019-04-29T05:12:56.988Z,6.57
2019-04-29T05:18:03.200Z,7.20
2019-04-29T05:23:09.434Z,7.43
2019-04-29T05:28:15.619Z,7.73
2019-04-29T05:33:21.912Z,8.63
2019-04-29T05:38:41.006Z,10.30
2019-04-29T05:44:00.587Z,11.07
2019-04-29T05:49:08.985Z,12.33
2019-04-29T05:54:16.625Z,13.77
2019-04-29T05:59:22.805Z,14.83
2019-04-29T06:04:28.928Z,13.93
2019-04-29T06:09:35.064Z,14.23
2019-04-29T06:14:41.407Z,14.40
2019-04-29T06:19:47.547Z,14.63
2019-04-29T06:24:53.684Z,16.43
2019-04-29T06:30:03.157Z,15.60
2019-04-29T06:35:10.539Z,14.90
2019-04-29T06:40:16.018Z,14.75
2019-04-29T06:45:22.372Z,15.67
2019-04-29T06:50:28.540Z,16.43
2019-04-29T06:55:35.231Z,16.27
2019-04-29T07:00:41.374Z,16.60
2019-04-29T07:05:47.513Z,16.23
2019-04-29T07:10:55.846Z,16.17
2019-04-29T07:16:02.129Z,16.83
2019-04-29T07:21:11.891Z,17.53
2019-04-29T07:26:16.210Z,14.87
2019-04-29T07:31:22.441Z,17.70
2019-04-29T07:36:29.009Z,17.30
2019-04-29T07:41:35.225Z,16.97
2019-04-29T07:46:56.800Z,16.87
2019-04-29T07:51:57.375Z,17.50
2019-04-29T07:57:03.614Z,17.20
2019-04-29T08:02:09.904Z,18.67
2019-04-29T08:07:16.041Z,20.87
2019-04-29T08:12:23.228Z,21.27
2019-04-29T08:17:29.409Z,24.67
2019-04-29T08:22:35.621Z,21.70
2019-04-29T08:27:43.733Z,21.60
2019-04-29T08:32:49.731Z,21.63
2019-04-29T08:37:55.897Z,22.03
2019-04-29T08:43:39.495Z,17.80
2019-04-29T08:48:46.077Z,18.52
2019-04-29T08:53:52.481Z,17.90
2019-04-29T08:58:58.675Z,17.70
2019-04-29T09:04:06.574Z,15.43
2019-04-29T09:09:27.920Z,16.05
2019-04-29T09:14:21.256Z,15.17
2019-04-29T09:19:27.452Z,15.40
2019-04-29T09:24:33.644Z,17.00
2019-04-29T09:29:40.000Z,14.53
2019-04-29T09:34:46.290Z,16.73
2019-04-29T09:39:52.458Z,17.43
2019-04-29T09:45:08.951Z,18.63
2019-04-29T09:50:15.153Z,17.50
2019-04-29T09:55:22.425Z,16.50
2019-04-29T10:00:47.844Z,14.03
2019-04-29T10:06:12.951Z,14.57
2019-04-29T10:11:19.503Z,13.40
2019-04-29T10:16:42.266Z,13.27
2019-04-29T10:21:48.543Z,12.27
2019-04-29T10:26:54.870Z,12.33
2019-04-29T10:32:02.503Z,12.47
2019-04-29T10:37:10.277Z,12.88
2019-04-29T10:42:23.052Z,12.40
2019-04-29T10:47:52.738Z,12.00
2019-04-29T10:52:59.136Z,12.00
2019-04-29T10:58:05.664Z,11.40
2019-04-29T11:03:12.214Z,12.07
2019-04-29T11:08:43.364Z,12.77
2019-04-29T11:13:50.592Z,11.70
2019-04-29T11:19:00.250Z,11.70
2019-04-29T11:24:15.748Z,12.47
2019-04-29T11:29:27.365Z,11.80
2019-04-29T11:34:53.807Z,11.93
2019-04-29T11:40:00.967Z,10.80
2019-04-29T11:45:09.508Z,12.30
2019-04-29T11:50:22.733Z,13.03
2019-04-29T11:55:28.929Z,12.10
2019-04-29T12:00:54.476Z,10.83
2019-04-29T12:06:03.332Z,10.70
2019-04-29T12:11:09.784Z,11.10
2019-04-29T12:16:24.602Z,11.10
2019-04-29T12:21:33.002Z,9.77
2019-04-29T12:26:43.195Z,10.03
2019-04-29T12:32:20.595Z,10.23
2019-04-29T12:37:45.074Z,9.70
2019-04-29T12:43:19.870Z,8.30
2019-04-29T12:48:26.996Z,8.77
2019-04-29T12:53:33.231Z,8.58
2019-04-29T12:58:39.616Z,8.67
2019-04-29T13:03:53.900Z,9.53
2019-04-29T13:09:17.367Z,8.77
2019-04-29T13:14:13.118Z,9.20
2019-04-29T13:19:25.025Z,10.20
2019-04-29T13:24:32.619Z,10.03
2019-04-29T13:29:38.947Z,10.37
2019-04-29T13:34:47.056Z,11.17
2019-04-29T13:39:55.629Z,10.20
2019-04-29T13:45:09.537Z,10.83
2019-04-29T13:50:38.728Z,10.75
2019-04-29T13:55:47.817Z,8.47
2019-04-29T14:00:59.934Z,7.93
2019-04-29T14:06:06.923Z,8.47
2019-04-29T14:11:13.141Z,9.20
2019-04-29T14:16:19.889Z,7.73
2019-04-29T14:21:30.115Z,29.47
2019-04-29T14:26:36.989Z,7.10
2019-04-29T14:31:42.238Z,7.27
2019-04-29T14:36:48.494Z,7.27
2019-04-29T14:41:59.792Z,6.57
2019-04-29T14:47:13.039Z,6.97
2019-04-29T14:52:19.528Z,6.03
2019-04-29T14:57:25.862Z,6.20
2019-04-29T15:02:32.166Z,6.43
2019-04-29T15:07:38.430Z,6.63
2019-04-29T15:13:01.432Z,8.07
2019-04-29T15:18:15.459Z,7.37
2019-04-29T15:23:27.658Z,6.97
2019-04-29T15:28:21.878Z,6.57
2019-04-29T15:33:30.538Z,6.33
2019-04-29T15:38:35.856Z,6.07
2019-04-29T15:43:47.613Z,6.53
2019-04-29T15:48:49.793Z,5.80
2019-04-29T15:53:55.984Z,6.77
2019-04-29T15:59:08.047Z,6.22
2019-04-29T16:04:13.787Z,5.87
2019-04-29T16:09:50.341Z,5.67
2019-04-29T16:14:37.710Z,6.53
2019-04-29T16:19:44.160Z,6.13
2019-04-29T16:24:50.465Z,6.30
2019-04-29T16:29:56.781Z,5.77
2019-04-29T16:35:03.345Z,6.07
2019-04-29T16:40:11.257Z,5.77
2019-04-29T16:45:20.612Z,6.97
2019-04-29T16:50:27.207Z,5.27
2019-04-29T16:55:36.014Z,7.00
2019-04-29T17:00:46.509Z,5.50
2019-04-29T17:05:49.768Z,5.10
2019-04-29T17:11:01.749Z,4.93
2019-04-29T17:16:12.178Z,4.73
2019-04-29T17:21:20.816Z,5.60
2019-04-29T17:26:34.039Z,4.70
2019-04-29T17:32:00.407Z,4.93
2019-04-29T17:37:06.990Z,4.93
2019-04-29T17:42:13.346Z,4.70
2019-04-29T17:47:37.903Z,4.33
2019-04-29T17:52:45.452Z,4.12
2019-04-29T17:58:07.413Z,4.40
2019-04-29T18:03:29.377Z,4.20
2019-04-29T18:08:40.983Z,5.60
2019-04-29T18:13:48.422Z,6.10
2019-04-29T18:19:06.177Z,6.42
2019-04-29T18:24:35.922Z,7.57
2019-04-29T18:29:41.803Z,6.40
2019-04-29T18:34:46.501Z,7.40
2019-04-29T18:39:52.859Z,7.63
2019-04-29T18:45:00.500Z,6.97
2019-04-29T18:50:10.833Z,7.97
2019-04-29T18:55:18.465Z,7.70
2019-04-29T19:00:25.359Z,8.07
2019-04-29T19:05:56.533Z,8.70
2019-04-29T19:11:03.011Z,9.90
2019-04-29T19:16:12.055Z,8.50
2019-04-29T19:21:23.489Z,9.23
2019-04-29T19:26:29.471Z,9.83
2019-04-29T19:31:44.428Z,9.67
2019-04-29T19:36:45.255Z,10.43
2019-04-29T19:41:52.925Z,9.93
2019-04-29T19:46:59.274Z,11.20
2019-04-29T19:52:06.577Z,11.57
2019-04-29T19:57:12.753Z,13.13
2019-04-29T20:02:19.369Z,12.87
2019-04-29T20:07:27.199Z,16.47
2019-04-29T20:12:34.683Z,15.20
2019-04-29T20:18:08.647Z,13.50
2019-04-29T20:23:20.094Z,13.75
2019-04-29T20:28:23.142Z,13.43
2019-04-29T20:33:29.685Z,12.87
2019-04-29T20:38:39.073Z,11.87
2019-04-29T20:43:46.286Z,11.28
2019-04-29T20:48:55.698Z,11.60
2019-04-29T20:54:09.140Z,11.57
2019-04-29T20:59:15.562Z,11.57
2019-04-29T21:04:32.043Z,11.20
2019-04-29T21:09:30.741Z,11.60
2019-04-29T21:14:42.152Z,11.37
2019-04-29T21:19:48.192Z,11.33
2019-04-29T21:24:55.160Z,12.10
2019-04-29T21:30:01.471Z,12.10
2019-04-29T21:35:20.911Z,11.35
2019-04-29T21:40:38.433Z,12.00
2019-04-29T21:45:48.276Z,13.23
2019-04-29T21:50:52.540Z,12.70
2019-04-29T21:55:59.719Z,11.67
2019-04-29T22:01:07.945Z,11.35
2019-04-29T22:06:14.192Z,11.73
2019-04-29T22:11:20.500Z,10.97
2019-04-29T22:16:27.806Z,10.78
2019-04-29T22:21:35.887Z,10.30
2019-04-29T22:26:41.863Z,9.57
2019-04-29T22:31:47.940Z,10.27
2019-04-29T22:36:58.332Z,9.77
2019-04-29T22:42:27.763Z,10.17
2019-04-29T22:47:31.924Z,11.30
2019-04-29T22:52:38.145Z,10.73
2019-04-29T22:57:44.924Z,11.50
2019-04-29T23:02:52.203Z,12.33
2019-04-29T23:08:00.314Z,12.37
2019-04-29T23:13:06.412Z,12.23
2019-04-29T23:18:24.360Z,11.78
2019-04-29T23:23:33.726Z,12.47
2019-04-29T23:28:36.274Z,12.10
2019-04-29T23:33:42.671Z,13.40
2019-04-29T23:38:49.026Z,13.00
2019-04-29T23:43:55.626Z,14.30
2019-04-29T23:49:06.536Z,14.45
2019-04-29T23:54:12.166Z,13.30
2019-04-29T23:59:25.175Z,15.08
